sensor_id;sensor_type;location;lat;lon;timestamp;P1;durP1;ratioP1;P2;durP2;ratioP2
86329;SDS011;76985;51.042;13.978;2024-03-07T00:00:11;74.05;;;23.27;;
86329;SDS011;76985;51.042;13.978;2024-03-07T00:02:46;74.50;;;26.00;;
86329;SDS011;76985;51.042;13.978;2024-03-07T00:05:18;74.93;;;23.45;;
86329;SDS011;76985;51.042;13.978;2024-03-07T00:07:45;72.90;;;23.90;;
86329;SDS011;76985;51.042;13.978;2024-03-07T00:10:12;76.47;;;25.40;;
86329;SDS011;76985;51.042;13.978;2024-03-07T00:12:39;77.50;;;24.33;;
86329;SDS011;76985;51.042;13.978;2024-03-07T00:15:09;77.80;;;26.35;;
86329;SDS011;76985;51.042;13.978;2024-03-07T00:17:36;75.72;;;24.52;;
86329;SDS011;76985;51.042;13.978;2024-03-07T00:20:03;86.35;;;26.77;;
86329;SDS011;76985;51.042;13.978;2024-03-07T00:22:37;77.47;;;25.00;;
86329;SDS011;76985;51.042;13.978;2024-03-07T00:25:04;78.43;;;24.75;;
86329;SDS011;76985;51.042;13.978;2024-03-07T00:27:37;86.28;;;24.77;;
86329;SDS011;76985;51.042;13.978;2024-03-07T00:30:04;78.85;;;24.25;;
86329;SDS011;76985;51.042;13.978;2024-03-07T00:32:34;68.68;;;23.90;;
86329;SDS011;76985;51.042;13.978;2024-03-07T00:35:05;75.90;;;25.02;;
86329;SDS011;76985;51.042;13.978;2024-03-07T00:37:32;79.97;;;26.23;;
86329;SDS011;76985;51.042;13.978;2024-03-07T00:39:58;77.65;;;25.92;;
86329;SDS011;76985;51.042;13.978;2024-03-07T00:42:25;67.38;;;25.45;;
86329;SDS011;76985;51.042;13.978;2024-03-07T00:44:53;79.35;;;24.58;;
86329;SDS011;76985;51.042;13.978;2024-03-07T00:47:19;76.13;;;26.42;;
86329;SDS011;76985;51.042;13.978;2024-03-07T00:49:45;73.85;;;23.90;;
86329;SDS011;76985;51.042;13.978;2024-03-07T00:54:42;63.00;;;22.88;;
86329;SDS011;76985;51.042;13.978;2024-03-07T00:57:08;80.60;;;27.30;;
86329;SDS011;76985;51.042;13.978;2024-03-07T00:59:35;78.25;;;24.90;;
86329;SDS011;76985;51.042;13.978;2024-03-07T01:02:01;83.97;;;27.45;;
86329;SDS011;76985;51.042;13.978;2024-03-07T01:04:27;79.88;;;25.33;;
86329;SDS011;76985;51.042;13.978;2024-03-07T01:06:58;80.35;;;24.77;;
86329;SDS011;76985;51.042;13.978;2024-03-07T01:09:25;80.35;;;26.05;;
86329;SDS011;76985;51.042;13.978;2024-03-07T01:11:54;84.22;;;27.52;;
86329;SDS011;76985;51.042;13.978;2024-03-07T01:14:21;76.10;;;24.90;;
86329;SDS011;76985;51.042;13.978;2024-03-07T01:16:48;81.55;;;27.17;;
86329;SDS011;76985;51.042;13.978;2024-03-07T01:19:14;76.65;;;26.13;;
86329;SDS011;76985;51.042;13.978;2024-03-07T01:21:40;74.57;;;24.38;;
86329;SDS011;76985;51.042;13.978;2024-03-07T01:24:06;70.38;;;25.83;;
86329;SDS011;76985;51.042;13.978;2024-03-07T01:26:33;79.35;;;25.85;;
86329;SDS011;76985;51.042;13.978;2024-03-07T01:28:59;67.10;;;23.52;;
86329;SDS011;76985;51.042;13.978;2024-03-07T01:31:25;69.55;;;23.20;;
86329;SDS011;76985;51.042;13.978;2024-03-07T01:33:52;80.13;;;27.08;;
86329;SDS011;76985;51.042;13.978;2024-03-07T01:36:18;74.10;;;25.80;;
86329;SDS011;76985;51.042;13.978;2024-03-07T01:38:46;78.75;;;25.25;;
86329;SDS011;76985;51.042;13.978;2024-03-07T01:41:12;77.47;;;26.08;;
86329;SDS011;76985;51.042;13.978;2024-03-07T01:43:40;71.80;;;25.35;;
86329;SDS011;76985;51.042;13.978;2024-03-07T01:46:07;75.18;;;26.60;;
86329;SDS011;76985;51.042;13.978;2024-03-07T01:48:34;72.90;;;25.40;;
86329;SDS011;76985;51.042;13.978;2024-03-07T01:51:00;76.90;;;24.85;;
86329;SDS011;76985;51.042;13.978;2024-03-07T01:53:27;88.70;;;28.02;;
86329;SDS011;76985;51.042;13.978;2024-03-07T01:55:54;81.80;;;25.50;;
86329;SDS011;76985;51.042;13.978;2024-03-07T01:58:22;83.45;;;29.10;;
86329;SDS011;76985;51.042;13.978;2024-03-07T02:00:49;77.47;;;27.30;;
86329;SDS011;76985;51.042;13.978;2024-03-07T02:03:16;85.82;;;26.77;;
86329;SDS011;76985;51.042;13.978;2024-03-07T02:05:42;83.43;;;28.88;;
86329;SDS011;76985;51.042;13.978;2024-03-07T02:08:09;75.35;;;28.48;;
86329;SDS011;76985;51.042;13.978;2024-03-07T02:10:35;81.70;;;27.67;;
86329;SDS011;76985;51.042;13.978;2024-03-07T02:13:01;87.70;;;27.70;;
86329;SDS011;76985;51.042;13.978;2024-03-07T02:15:27;73.07;;;27.45;;
86329;SDS011;76985;51.042;13.978;2024-03-07T02:17:53;76.55;;;26.17;;
86329;SDS011;76985;51.042;13.978;2024-03-07T02:20:19;77.57;;;26.80;;
86329;SDS011;76985;51.042;13.978;2024-03-07T02:22:46;78.68;;;27.10;;
86329;SDS011;76985;51.042;13.978;2024-03-07T02:25:12;76.57;;;28.67;;
86329;SDS011;76985;51.042;13.978;2024-03-07T02:27:38;78.45;;;27.50;;
86329;SDS011;76985;51.042;13.978;2024-03-07T02:30:04;81.72;;;27.90;;
86329;SDS011;76985;51.042;13.978;2024-03-07T02:32:37;74.68;;;26.63;;
86329;SDS011;76985;51.042;13.978;2024-03-07T02:35:03;81.53;;;26.67;;
86329;SDS011;76985;51.042;13.978;2024-03-07T02:37:30;86.65;;;26.98;;
86329;SDS011;76985;51.042;13.978;2024-03-07T02:39:56;76.82;;;27.15;;
86329;SDS011;76985;51.042;13.978;2024-03-07T02:42:23;79.15;;;27.15;;
86329;SDS011;76985;51.042;13.978;2024-03-07T02:44:49;83.35;;;27.08;;
86329;SDS011;76985;51.042;13.978;2024-03-07T02:47:15;77.10;;;28.73;;
86329;SDS011;76985;51.042;13.978;2024-03-07T02:49:41;82.75;;;26.90;;
86329;SDS011;76985;51.042;13.978;2024-03-07T02:52:07;79.80;;;28.67;;
86329;SDS011;76985;51.042;13.978;2024-03-07T02:54:34;79.30;;;27.13;;
86329;SDS011;76985;51.042;13.978;2024-03-07T02:57:00;84.88;;;29.10;;
86329;SDS011;76985;51.042;13.978;2024-03-07T02:59:27;84.60;;;28.90;;
86329;SDS011;76985;51.042;13.978;2024-03-07T03:01:53;81.97;;;27.65;;
86329;SDS011;76985;51.042;13.978;2024-03-07T03:04:19;81.25;;;28.20;;
86329;SDS011;76985;51.042;13.978;2024-03-07T03:06:45;81.63;;;27.63;;
86329;SDS011;76985;51.042;13.978;2024-03-07T03:09:12;81.50;;;28.85;;
86329;SDS011;76985;51.042;13.978;2024-03-07T03:11:43;79.38;;;26.52;;
86329;SDS011;76985;51.042;13.978;2024-03-07T03:16:42;91.72;;;28.25;;
86329;SDS011;76985;51.042;13.978;2024-03-07T03:21:36;81.75;;;25.73;;
86329;SDS011;76985;51.042;13.978;2024-03-07T03:24:03;89.85;;;29.75;;
86329;SDS011;76985;51.042;13.978;2024-03-07T03:26:30;82.55;;;28.60;;
86329;SDS011;76985;51.042;13.978;2024-03-07T03:28:57;103.85;;;31.88;;
86329;SDS011;76985;51.042;13.978;2024-03-07T03:31:24;91.53;;;30.48;;
86329;SDS011;76985;51.042;13.978;2024-03-07T03:33:50;96.28;;;31.35;;
86329;SDS011;76985;51.042;13.978;2024-03-07T03:36:17;91.60;;;30.60;;
86329;SDS011;76985;51.042;13.978;2024-03-07T03:38:44;90.70;;;30.25;;
86329;SDS011;76985;51.042;13.978;2024-03-07T03:41:14;99.05;;;33.33;;
86329;SDS011;76985;51.042;13.978;2024-03-07T03:43:42;94.00;;;32.10;;
86329;SDS011;76985;51.042;13.978;2024-03-07T03:46:11;85.93;;;32.45;;
86329;SDS011;76985;51.042;13.978;2024-03-07T03:48:38;92.20;;;32.35;;
86329;SDS011;76985;51.042;13.978;2024-03-07T03:51:09;98.60;;;34.97;;
86329;SDS011;76985;51.042;13.978;2024-03-07T03:53:35;102.78;;;33.65;;
86329;SDS011;76985;51.042;13.978;2024-03-07T03:56:02;92.75;;;32.83;;
86329;SDS011;76985;51.042;13.978;2024-03-07T03:58:31;93.85;;;31.90;;
86329;SDS011;76985;51.042;13.978;2024-03-07T04:00:57;94.95;;;32.70;;
86329;SDS011;76985;51.042;13.978;2024-03-07T04:03:26;90.18;;;31.40;;
86329;SDS011;76985;51.042;13.978;2024-03-07T04:05:52;101.07;;;35.67;;
86329;SDS011;76985;51.042;13.978;2024-03-07T04:08:19;92.72;;;31.70;;
86329;SDS011;76985;51.042;13.978;2024-03-07T04:10:46;97.43;;;33.22;;
86329;SDS011;76985;51.042;13.978;2024-03-07T04:13:12;102.68;;;34.47;;
86329;SDS011;76985;51.042;13.978;2024-03-07T04:15:39;93.43;;;32.30;;
86329;SDS011;76985;51.042;13.978;2024-03-07T04:18:06;108.35;;;33.95;;
86329;SDS011;76985;51.042;13.978;2024-03-07T04:20:33;93.13;;;35.58;;
86329;SDS011;76985;51.042;13.978;2024-03-07T04:22:59;95.25;;;32.50;;
86329;SDS011;76985;51.042;13.978;2024-03-07T04:25:25;92.35;;;31.45;;
86329;SDS011;76985;51.042;13.978;2024-03-07T04:27:51;100.50;;;32.90;;
86329;SDS011;76985;51.042;13.978;2024-03-07T04:30:17;90.47;;;32.28;;
86329;SDS011;76985;51.042;13.978;2024-03-07T04:32:43;91.57;;;32.58;;
86329;SDS011;76985;51.042;13.978;2024-03-07T04:35:09;92.65;;;33.88;;
86329;SDS011;76985;51.042;13.978;2024-03-07T04:37:36;87.97;;;32.20;;
86329;SDS011;76985;51.042;13.978;2024-03-07T04:40:04;90.82;;;31.75;;
86329;SDS011;76985;51.042;13.978;2024-03-07T04:42:41;90.55;;;29.60;;
86329;SDS011;76985;51.042;13.978;2024-03-07T04:45:11;91.13;;;30.70;;
86329;SDS011;76985;51.042;13.978;2024-03-07T04:47:42;88.65;;;29.65;;
86329;SDS011;76985;51.042;13.978;2024-03-07T04:50:10;81.05;;;28.40;;
86329;SDS011;76985;51.042;13.978;2024-03-07T04:52:37;85.97;;;32.25;;
86329;SDS011;76985;51.042;13.978;2024-03-07T04:55:05;93.55;;;31.38;;
86329;SDS011;76985;51.042;13.978;2024-03-07T04:57:37;83.97;;;31.52;;
86329;SDS011;76985;51.042;13.978;2024-03-07T05:00:09;90.38;;;30.77;;
86329;SDS011;76985;51.042;13.978;2024-03-07T05:02:40;88.35;;;30.92;;
86329;SDS011;76985;51.042;13.978;2024-03-07T05:05:07;77.72;;;27.15;;
86329;SDS011;76985;51.042;13.978;2024-03-07T05:07:33;74.30;;;26.75;;
86329;SDS011;76985;51.042;13.978;2024-03-07T05:10:02;80.35;;;28.08;;
86329;SDS011;76985;51.042;13.978;2024-03-07T05:12:30;89.18;;;30.15;;
86329;SDS011;76985;51.042;13.978;2024-03-07T05:14:56;74.65;;;27.52;;
86329;SDS011;76985;51.042;13.978;2024-03-07T05:17:22;84.68;;;30.35;;
86329;SDS011;76985;51.042;13.978;2024-03-07T05:19:48;80.88;;;29.25;;
86329;SDS011;76985;51.042;13.978;2024-03-07T05:22:15;84.82;;;28.90;;
86329;SDS011;76985;51.042;13.978;2024-03-07T05:24:42;76.00;;;26.95;;
86329;SDS011;76985;51.042;13.978;2024-03-07T05:27:09;81.50;;;29.45;;
86329;SDS011;76985;51.042;13.978;2024-03-07T05:29:40;83.63;;;29.50;;
86329;SDS011;76985;51.042;13.978;2024-03-07T05:32:19;82.88;;;30.02;;
86329;SDS011;76985;51.042;13.978;2024-03-07T05:34:47;81.50;;;28.58;;
86329;SDS011;76985;51.042;13.978;2024-03-07T05:37:13;78.30;;;27.42;;
86329;SDS011;76985;51.042;13.978;2024-03-07T05:39:39;80.13;;;27.85;;
86329;SDS011;76985;51.042;13.978;2024-03-07T05:42:05;80.03;;;25.58;;
86329;SDS011;76985;51.042;13.978;2024-03-07T05:44:32;71.75;;;27.25;;
86329;SDS011;76985;51.042;13.978;2024-03-07T05:46:59;86.75;;;28.35;;
86329;SDS011;76985;51.042;13.978;2024-03-07T05:49:25;91.07;;;30.40;;
86329;SDS011;76985;51.042;13.978;2024-03-07T05:51:51;81.47;;;29.55;;
86329;SDS011;76985;51.042;13.978;2024-03-07T05:54:17;79.45;;;29.60;;
86329;SDS011;76985;51.042;13.978;2024-03-07T05:56:43;87.25;;;30.50;;
86329;SDS011;76985;51.042;13.978;2024-03-07T05:59:09;85.93;;;30.23;;
86329;SDS011;76985;51.042;13.978;2024-03-07T06:01:36;90.10;;;30.58;;
86329;SDS011;76985;51.042;13.978;2024-03-07T06:04:03;90.65;;;30.75;;
86329;SDS011;76985;51.042;13.978;2024-03-07T06:06:32;84.85;;;29.67;;
86329;SDS011;76985;51.042;13.978;2024-03-07T06:09:00;87.10;;;31.25;;
86329;SDS011;76985;51.042;13.978;2024-03-07T06:11:36;73.35;;;28.45;;
86329;SDS011;76985;51.042;13.978;2024-03-07T06:14:03;78.70;;;28.23;;
86329;SDS011;76985;51.042;13.978;2024-03-07T06:16:35;91.13;;;31.27;;
86329;SDS011;76985;51.042;13.978;2024-03-07T06:19:02;93.50;;;30.13;;
86329;SDS011;76985;51.042;13.978;2024-03-07T06:21:29;87.20;;;31.05;;
86329;SDS011;76985;51.042;13.978;2024-03-07T06:23:56;80.78;;;29.42;;
86329;SDS011;76985;51.042;13.978;2024-03-07T06:26:27;84.85;;;30.58;;
86329;SDS011;76985;51.042;13.978;2024-03-07T06:29:03;87.95;;;31.25;;
86329;SDS011;76985;51.042;13.978;2024-03-07T06:31:33;91.70;;;31.83;;
86329;SDS011;76985;51.042;13.978;2024-03-07T06:34:00;88.85;;;30.58;;
86329;SDS011;76985;51.042;13.978;2024-03-07T06:36:26;82.80;;;29.33;;
86329;SDS011;76985;51.042;13.978;2024-03-07T06:38:53;84.10;;;29.90;;
86329;SDS011;76985;51.042;13.978;2024-03-07T06:41:20;81.68;;;29.23;;
86329;SDS011;76985;51.042;13.978;2024-03-07T06:43:46;90.15;;;31.42;;
86329;SDS011;76985;51.042;13.978;2024-03-07T06:46:12;74.63;;;27.75;;
86329;SDS011;76985;51.042;13.978;2024-03-07T06:48:38;84.47;;;28.88;;
86329;SDS011;76985;51.042;13.978;2024-03-07T06:51:06;80.90;;;29.13;;
86329;SDS011;76985;51.042;13.978;2024-03-07T06:53:32;82.80;;;28.77;;
86329;SDS011;76985;51.042;13.978;2024-03-07T06:55:59;83.03;;;29.80;;
86329;SDS011;76985;51.042;13.978;2024-03-07T06:58:25;74.20;;;27.58;;
86329;SDS011;76985;51.042;13.978;2024-03-07T07:00:52;82.18;;;28.92;;
86329;SDS011;76985;51.042;13.978;2024-03-07T07:03:20;74.57;;;26.33;;
86329;SDS011;76985;51.042;13.978;2024-03-07T07:05:48;79.45;;;28.17;;
86329;SDS011;76985;51.042;13.978;2024-03-07T07:08:14;81.50;;;27.42;;
86329;SDS011;76985;51.042;13.978;2024-03-07T07:10:40;75.28;;;26.98;;
86329;SDS011;76985;51.042;13.978;2024-03-07T07:13:06;86.82;;;28.05;;
86329;SDS011;76985;51.042;13.978;2024-03-07T07:15:32;80.85;;;26.60;;
86329;SDS011;76985;51.042;13.978;2024-03-07T07:18:00;78.00;;;27.58;;
86329;SDS011;76985;51.042;13.978;2024-03-07T07:20:27;76.65;;;26.63;;
86329;SDS011;76985;51.042;13.978;2024-03-07T07:22:54;74.53;;;26.50;;
86329;SDS011;76985;51.042;13.978;2024-03-07T07:25:20;73.55;;;26.05;;
86329;SDS011;76985;51.042;13.978;2024-03-07T07:27:47;83.85;;;26.70;;
86329;SDS011;76985;51.042;13.978;2024-03-07T07:30:16;70.65;;;25.48;;
86329;SDS011;76985;51.042;13.978;2024-03-07T07:32:44;65.00;;;24.50;;
86329;SDS011;76985;51.042;13.978;2024-03-07T07:35:11;63.30;;;23.88;;
86329;SDS011;76985;51.042;13.978;2024-03-07T07:37:38;64.43;;;24.75;;
86329;SDS011;76985;51.042;13.978;2024-03-07T07:40:08;67.97;;;24.45;;
86329;SDS011;76985;51.042;13.978;2024-03-07T07:42:47;70.05;;;23.98;;
86329;SDS011;76985;51.042;13.978;2024-03-07T07:45:15;71.20;;;25.65;;
86329;SDS011;76985;51.042;13.978;2024-03-07T07:47:45;69.22;;;25.48;;
86329;SDS011;76985;51.042;13.978;2024-03-07T07:50:16;75.40;;;25.15;;
86329;SDS011;76985;51.042;13.978;2024-03-07T07:52:45;66.72;;;25.95;;
86329;SDS011;76985;51.042;13.978;2024-03-07T07:55:22;66.03;;;24.02;;
86329;SDS011;76985;51.042;13.978;2024-03-07T07:57:56;62.22;;;25.15;;
86329;SDS011;76985;51.042;13.978;2024-03-07T08:00:24;57.92;;;25.00;;
86329;SDS011;76985;51.042;13.978;2024-03-07T08:03:03;62.33;;;22.85;;
86329;SDS011;76985;51.042;13.978;2024-03-07T08:05:35;57.78;;;22.77;;
86329;SDS011;76985;51.042;13.978;2024-03-07T08:08:03;64.53;;;23.40;;
86329;SDS011;76985;51.042;13.978;2024-03-07T08:10:34;59.42;;;22.75;;
86329;SDS011;76985;51.042;13.978;2024-03-07T08:13:02;57.97;;;21.10;;
86329;SDS011;76985;51.042;13.978;2024-03-07T08:17:57;52.35;;;20.48;;
86329;SDS011;76985;51.042;13.978;2024-03-07T08:20:25;50.33;;;20.90;;
86329;SDS011;76985;51.042;13.978;2024-03-07T08:22:53;48.60;;;21.00;;
86329;SDS011;76985;51.042;13.978;2024-03-07T08:25:21;54.35;;;22.25;;
86329;SDS011;76985;51.042;13.978;2024-03-07T08:27:49;44.88;;;20.00;;
86329;SDS011;76985;51.042;13.978;2024-03-07T08:30:16;52.85;;;22.75;;
86329;SDS011;76985;51.042;13.978;2024-03-07T08:32:46;56.63;;;21.90;;
86329;SDS011;76985;51.042;13.978;2024-03-07T08:35:14;62.63;;;22.38;;
86329;SDS011;76985;51.042;13.978;2024-03-07T08:37:42;49.35;;;19.58;;
86329;SDS011;76985;51.042;13.978;2024-03-07T08:40:15;46.47;;;20.30;;
86329;SDS011;76985;51.042;13.978;2024-03-07T08:42:47;54.67;;;21.35;;
86329;SDS011;76985;51.042;13.978;2024-03-07T08:47:45;55.40;;;21.85;;
86329;SDS011;76985;51.042;13.978;2024-03-07T08:50:13;54.28;;;20.95;;
86329;SDS011;76985;51.042;13.978;2024-03-07T08:52:39;50.17;;;21.73;;
86329;SDS011;76985;51.042;13.978;2024-03-07T08:55:06;50.10;;;21.00;;
86329;SDS011;76985;51.042;13.978;2024-03-07T08:57:37;53.28;;;20.77;;
86329;SDS011;76985;51.042;13.978;2024-03-07T09:00:05;47.72;;;19.83;;
86329;SDS011;76985;51.042;13.978;2024-03-07T09:02:37;49.90;;;21.02;;
86329;SDS011;76985;51.042;13.978;2024-03-07T09:05:04;40.53;;;16.42;;
86329;SDS011;76985;51.042;13.978;2024-03-07T09:07:31;52.60;;;20.52;;
86329;SDS011;76985;51.042;13.978;2024-03-07T09:09:58;47.97;;;20.05;;
86329;SDS011;76985;51.042;13.978;2024-03-07T09:12:24;48.33;;;19.75;;
86329;SDS011;76985;51.042;13.978;2024-03-07T09:14:51;54.95;;;20.00;;
86329;SDS011;76985;51.042;13.978;2024-03-07T09:17:24;43.28;;;18.83;;
86329;SDS011;76985;51.042;13.978;2024-03-07T09:19:50;42.70;;;18.23;;
86329;SDS011;76985;51.042;13.978;2024-03-07T09:22:16;48.45;;;17.65;;
86329;SDS011;76985;51.042;13.978;2024-03-07T09:24:42;45.08;;;18.65;;
86329;SDS011;76985;51.042;13.978;2024-03-07T09:27:08;44.55;;;17.17;;
86329;SDS011;76985;51.042;13.978;2024-03-07T09:29:34;47.35;;;19.10;;
86329;SDS011;76985;51.042;13.978;2024-03-07T09:32:00;47.85;;;18.10;;
86329;SDS011;76985;51.042;13.978;2024-03-07T09:34:27;47.55;;;20.40;;
86329;SDS011;76985;51.042;13.978;2024-03-07T09:36:56;51.13;;;20.63;;
86329;SDS011;76985;51.042;13.978;2024-03-07T09:39:22;50.10;;;21.15;;
86329;SDS011;76985;51.042;13.978;2024-03-07T09:41:49;65.75;;;24.83;;
86329;SDS011;76985;51.042;13.978;2024-03-07T09:44:17;70.85;;;24.27;;
86329;SDS011;76985;51.042;13.978;2024-03-07T09:46:49;83.45;;;28.88;;
86329;SDS011;76985;51.042;13.978;2024-03-07T09:49:16;84.28;;;30.23;;
86329;SDS011;76985;51.042;13.978;2024-03-07T09:51:47;67.05;;;26.45;;
86329;SDS011;76985;51.042;13.978;2024-03-07T09:54:18;45.80;;;20.52;;
86329;SDS011;76985;51.042;13.978;2024-03-07T09:56:45;48.25;;;20.42;;
86329;SDS011;76985;51.042;13.978;2024-03-07T09:59:12;52.72;;;22.50;;
86329;SDS011;76985;51.042;13.978;2024-03-07T10:01:39;50.50;;;22.13;;
86329;SDS011;76985;51.042;13.978;2024-03-07T10:04:08;47.38;;;18.85;;
86329;SDS011;76985;51.042;13.978;2024-03-07T10:06:40;55.40;;;22.77;;
86329;SDS011;76985;51.042;13.978;2024-03-07T10:09:07;49.45;;;21.08;;
86329;SDS011;76985;51.042;13.978;2024-03-07T10:11:33;49.95;;;22.08;;
86329;SDS011;76985;51.042;13.978;2024-03-07T10:14:00;54.92;;;23.15;;
86329;SDS011;76985;51.042;13.978;2024-03-07T10:16:29;53.42;;;23.33;;
86329;SDS011;76985;51.042;13.978;2024-03-07T10:18:58;53.45;;;23.40;;
86329;SDS011;76985;51.042;13.978;2024-03-07T10:21:27;57.15;;;23.88;;
86329;SDS011;76985;51.042;13.978;2024-03-07T10:24:04;53.50;;;24.33;;
86329;SDS011;76985;51.042;13.978;2024-03-07T10:26:34;55.08;;;22.60;;
86329;SDS011;76985;51.042;13.978;2024-03-07T10:29:03;60.65;;;24.02;;
86329;SDS011;76985;51.042;13.978;2024-03-07T10:31:31;59.22;;;23.17;;
86329;SDS011;76985;51.042;13.978;2024-03-07T10:34:00;56.78;;;22.25;;
86329;SDS011;76985;51.042;13.978;2024-03-07T10:36:28;57.55;;;22.75;;
86329;SDS011;76985;51.042;13.978;2024-03-07T10:38:59;62.08;;;22.90;;
86329;SDS011;76985;51.042;13.978;2024-03-07T10:41:27;58.25;;;23.08;;
86329;SDS011;76985;51.042;13.978;2024-03-07T10:43:56;49.75;;;21.02;;
86329;SDS011;76985;51.042;13.978;2024-03-07T10:46:26;55.40;;;24.88;;
86329;SDS011;76985;51.042;13.978;2024-03-07T10:48:56;54.63;;;21.42;;
86329;SDS011;76985;51.042;13.978;2024-03-07T10:51:38;46.25;;;18.70;;
86329;SDS011;76985;51.042;13.978;2024-03-07T10:54:22;52.03;;;21.23;;
86329;SDS011;76985;51.042;13.978;2024-03-07T11:00:00;50.17;;;19.92;;
86329;SDS011;76985;51.042;13.978;2024-03-07T11:02:49;51.80;;;22.23;;
86329;SDS011;76985;51.042;13.978;2024-03-07T11:05:21;55.65;;;20.23;;
86329;SDS011;76985;51.042;13.978;2024-03-07T11:07:52;51.72;;;22.27;;
86329;SDS011;76985;51.042;13.978;2024-03-07T11:10:19;53.25;;;23.45;;
86329;SDS011;76985;51.042;13.978;2024-03-07T11:12:46;48.65;;;20.92;;
86329;SDS011;76985;51.042;13.978;2024-03-07T11:15:16;55.42;;;21.02;;
86329;SDS011;76985;51.042;13.978;2024-03-07T11:17:47;48.42;;;18.75;;
86329;SDS011;76985;51.042;13.978;2024-03-07T11:20:18;49.80;;;20.17;;
86329;SDS011;76985;51.042;13.978;2024-03-07T11:22:48;50.55;;;19.98;;
86329;SDS011;76985;51.042;13.978;2024-03-07T11:25:19;46.75;;;19.55;;
86329;SDS011;76985;51.042;13.978;2024-03-07T11:27:56;44.72;;;20.80;;
86329;SDS011;76985;51.042;13.978;2024-03-07T11:30:24;54.53;;;21.50;;
86329;SDS011;76985;51.042;13.978;2024-03-07T11:32:51;53.20;;;18.00;;
86329;SDS011;76985;51.042;13.978;2024-03-07T11:35:31;55.25;;;20.05;;
86329;SDS011;76985;51.042;13.978;2024-03-07T11:38:06;54.25;;;20.95;;
86329;SDS011;76985;51.042;13.978;2024-03-07T11:43:27;53.20;;;20.73;;
86329;SDS011;76985;51.042;13.978;2024-03-07T11:45:54;55.05;;;21.10;;
86329;SDS011;76985;51.042;13.978;2024-03-07T11:48:23;54.58;;;20.48;;
86329;SDS011;76985;51.042;13.978;2024-03-07T11:50:51;56.38;;;23.08;;
86329;SDS011;76985;51.042;13.978;2024-03-07T11:53:20;46.90;;;20.52;;
86329;SDS011;76985;51.042;13.978;2024-03-07T11:55:47;50.83;;;19.73;;
86329;SDS011;76985;51.042;13.978;2024-03-07T12:01:06;47.40;;;20.27;;
86329;SDS011;76985;51.042;13.978;2024-03-07T12:03:36;47.42;;;19.23;;
86329;SDS011;76985;51.042;13.978;2024-03-07T12:06:03;52.45;;;19.45;;
86329;SDS011;76985;51.042;13.978;2024-03-07T12:08:30;48.10;;;20.35;;
86329;SDS011;76985;51.042;13.978;2024-03-07T12:10:57;50.05;;;20.52;;
86329;SDS011;76985;51.042;13.978;2024-03-07T12:13:25;48.10;;;20.08;;
86329;SDS011;76985;51.042;13.978;2024-03-07T12:15:53;48.65;;;19.92;;
86329;SDS011;76985;51.042;13.978;2024-03-07T12:18:21;44.13;;;18.10;;
86329;SDS011;76985;51.042;13.978;2024-03-07T12:20:48;41.00;;;18.08;;
86329;SDS011;76985;51.042;13.978;2024-03-07T12:23:24;53.20;;;18.98;;
86329;SDS011;76985;51.042;13.978;2024-03-07T12:26:00;41.58;;;17.35;;
86329;SDS011;76985;51.042;13.978;2024-03-07T12:28:30;41.30;;;18.42;;
86329;SDS011;76985;51.042;13.978;2024-03-07T12:33:28;42.80;;;17.15;;
86329;SDS011;76985;51.042;13.978;2024-03-07T12:35:56;45.97;;;17.77;;
86329;SDS011;76985;51.042;13.978;2024-03-07T12:38:32;44.40;;;18.65;;
86329;SDS011;76985;51.042;13.978;2024-03-07T12:41:02;38.22;;;16.75;;
86329;SDS011;76985;51.042;13.978;2024-03-07T12:43:31;42.88;;;19.40;;
86329;SDS011;76985;51.042;13.978;2024-03-07T12:45:58;43.35;;;16.75;;
86329;SDS011;76985;51.042;13.978;2024-03-07T12:48:24;37.58;;;16.73;;
86329;SDS011;76985;51.042;13.978;2024-03-07T12:50:51;37.38;;;16.75;;
86329;SDS011;76985;51.042;13.978;2024-03-07T12:53:22;42.15;;;16.98;;
86329;SDS011;76985;51.042;13.978;2024-03-07T12:55:49;44.80;;;17.58;;
86329;SDS011;76985;51.042;13.978;2024-03-07T12:58:17;32.10;;;12.80;;
86329;SDS011;76985;51.042;13.978;2024-03-07T13:00:45;35.55;;;15.13;;
86329;SDS011;76985;51.042;13.978;2024-03-07T13:03:12;44.10;;;17.60;;
86329;SDS011;76985;51.042;13.978;2024-03-07T13:05:40;38.65;;;16.25;;
86329;SDS011;76985;51.042;13.978;2024-03-07T13:08:08;34.72;;;15.32;;
86329;SDS011;76985;51.042;13.978;2024-03-07T13:10:41;37.60;;;15.07;;
86329;SDS011;76985;51.042;13.978;2024-03-07T13:13:08;41.28;;;16.65;;
86329;SDS011;76985;51.042;13.978;2024-03-07T13:15:38;40.67;;;16.77;;
86329;SDS011;76985;51.042;13.978;2024-03-07T13:18:04;28.27;;;12.35;;
86329;SDS011;76985;51.042;13.978;2024-03-07T13:20:31;40.67;;;14.90;;
86329;SDS011;76985;51.042;13.978;2024-03-07T13:22:58;24.90;;;12.35;;
86329;SDS011;76985;51.042;13.978;2024-03-07T13:25:26;33.95;;;15.07;;
86329;SDS011;76985;51.042;13.978;2024-03-07T13:28:05;34.50;;;15.80;;
86329;SDS011;76985;51.042;13.978;2024-03-07T13:30:37;40.92;;;16.65;;
86329;SDS011;76985;51.042;13.978;2024-03-07T13:33:03;36.60;;;15.70;;
86329;SDS011;76985;51.042;13.978;2024-03-07T13:35:30;48.00;;;18.55;;
86329;SDS011;76985;51.042;13.978;2024-03-07T13:37:56;41.80;;;17.45;;
86329;SDS011;76985;51.042;13.978;2024-03-07T13:40:23;38.53;;;15.93;;
86329;SDS011;76985;51.042;13.978;2024-03-07T13:42:57;36.83;;;16.42;;
86329;SDS011;76985;51.042;13.978;2024-03-07T13:45:28;39.50;;;16.50;;
86329;SDS011;76985;51.042;13.978;2024-03-07T13:48:15;38.22;;;16.00;;
86329;SDS011;76985;51.042;13.978;2024-03-07T13:50:44;37.28;;;17.10;;
86329;SDS011;76985;51.042;13.978;2024-03-07T13:53:11;34.47;;;14.63;;
86329;SDS011;76985;51.042;13.978;2024-03-07T13:56:00;40.00;;;17.02;;
86329;SDS011;76985;51.042;13.978;2024-03-07T14:12:25;35.88;;;15.32;;
86329;SDS011;76985;51.042;13.978;2024-03-07T14:23:01;41.72;;;16.83;;
86329;SDS011;76985;51.042;13.978;2024-03-07T14:28:17;67.20;;;25.65;;
86329;SDS011;76985;51.042;13.978;2024-03-07T14:31:14;44.80;;;18.70;;
86329;SDS011;76985;51.042;13.978;2024-03-07T14:36:53;39.22;;;17.50;;
86329;SDS011;76985;51.042;13.978;2024-03-07T14:39:22;44.67;;;17.77;;
86329;SDS011;76985;51.042;13.978;2024-03-07T14:41:50;42.42;;;17.98;;
86329;SDS011;76985;51.042;13.978;2024-03-07T14:44:20;42.35;;;19.40;;
86329;SDS011;76985;51.042;13.978;2024-03-07T14:46:48;37.42;;;17.05;;
86329;SDS011;76985;51.042;13.978;2024-03-07T14:49:19;40.85;;;18.38;;
86329;SDS011;76985;51.042;13.978;2024-03-07T14:51:45;40.60;;;18.73;;
86329;SDS011;76985;51.042;13.978;2024-03-07T14:54:15;43.15;;;18.50;;
86329;SDS011;76985;51.042;13.978;2024-03-07T14:56:41;47.45;;;18.67;;
86329;SDS011;76985;51.042;13.978;2024-03-07T14:59:08;39.97;;;18.30;;
86329;SDS011;76985;51.042;13.978;2024-03-07T15:01:34;39.53;;;18.10;;
86329;SDS011;76985;51.042;13.978;2024-03-07T15:04:00;50.67;;;21.35;;
86329;SDS011;76985;51.042;13.978;2024-03-07T15:06:34;43.33;;;17.88;;